Providence, Rhode Island
Current Conditions -  °F | °C
As of 7:51 PM on Tuesday 25 Nov 2014 (Local Time) from KPVD Reporting Station
Overcast Overcast  
Wind Chill: 50°   Ceiling: 20000
Heat Index: 50°   Visibility: 10mi
Dew Point: 28°   Wind: 6mph
Humidity: 43%   Direction: 270°W
Pressure: 30.05"   Gusts: NA
Location:  41.82°N, 71.41°W
Report Text: KPVD 260051Z 27005KT 10SM FEW060 BKN200 OVC250 10/M02 A3005 RMK AO2 SLP175 T01001022
Loading
Personal Weather Stations






























Interactive Weather Map New forecast layout! Learn more

10-Day Weather Forecast

Advertisements
Track Severe Weather on mobile